Time;durP1;ratioP1;P1;durP2;ratioP2;P2;SDS_P1;SDS_P2;PMS_P1;PMS_P2;Temp;Humidity;BMP_temperature;BMP_pressure;BME280_temperature;BME280_humidity;BME280_pressure;Samples;Min_cycle;Max_cycle;Signal;HPM_P1;HPM_P2
2023/10/09 00:01:46;;;;;;;7.63;4.05;;;14.10;99.90;;;;;;5105392;27;20068;-67
2023/10/09 00:04:13;;;;;;;8.85;4.32;;;14.10;99.90;;;;;;5109123;27;20111;-67
2023/10/09 00:06:40;;;;;;;11.25;4.10;;;14.10;99.90;;;;;;5107628;27;20104;-67
2023/10/09 00:09:16;;;;;;;7.90;3.67;;;14.10;99.90;;;;;;5105431;27;20172;-67
2023/10/09 00:11:44;;;;;;;6.53;3.55;;;14.10;99.90;;;;;;5135880;27;20040;-67
2023/10/09 00:14:11;;;;;;;8.98;3.80;;;14.10;99.90;;;;;;5107971;27;20489;-67
2023/10/09 00:16:43;;;;;;;6.65;3.78;;;14.10;99.90;;;;;;5104542;28;20130;-67
2023/10/09 00:21:55;;;;;;;11.40;4.25;;;14.10;99.90;;;;;;5103903;27;20086;-67
2023/10/09 00:24:24;;;;;;;7.80;3.97;;;14.10;99.90;;;;;;5107130;28;20035;-67
2023/10/09 00:26:51;;;;;;;7.80;4.20;;;14.10;99.90;;;;;;5106636;28;20031;-67
2023/10/09 00:29:23;;;;;;;7.90;4.00;;;14.10;99.90;;;;;;5136203;27;20134;-67
2023/10/09 00:32:03;;;;;;;10.07;4.20;;;14.00;99.90;;;;;;5104898;27;20035;-67
2023/10/09 00:34:29;;;;;;;9.38;4.85;;;14.10;99.90;;;;;;5110083;27;20122;-67
2023/10/09 00:36:55;;;;;;;8.95;4.03;;;14.10;99.90;;;;;;5106522;27;20452;-67
2023/10/09 00:39:43;;;;;;;11.43;4.70;;;14.00;99.90;;;;;;5138856;27;20123;-67
2023/10/09 00:42:12;;;;;;;7.20;4.82;;;14.10;99.90;;;;;;5105108;28;20099;-67
2023/10/09 00:44:48;;;;;;;9.27;4.65;;;14.10;99.90;;;;;;5105287;27;20449;-67
2023/10/09 00:47:20;;;;;;;;;;;14.00;99.90;;;;;;5104738;27;20126;-67
2023/10/09 00:53:01;;;;;;;11.07;5.10;;;14.00;99.90;;;;;;5101860;27;20073;-67
2023/10/09 00:55:37;;;;;;;11.90;5.80;;;14.00;99.90;;;;;;5138564;27;20040;-67
2023/10/09 00:58:09;;;;;;;9.40;5.63;;;13.90;99.90;;;;;;5107570;27;20508;-67
2023/10/09 01:06:33;;;;;;;13.25;6.82;;;13.90;99.90;;;;;;5106242;27;20054;-67
2023/10/09 01:08:32;;;;;;;10.95;7.05;;;14.00;99.90;;;;;;5097338;27;20044;-67
2023/10/09 01:11:14;;;;;;;11.10;6.75;;;13.90;99.90;;;;;;5104438;27;20668;-67
2023/10/09 01:13:52;;;;;;;11.98;6.38;;;13.90;99.90;;;;;;5105738;28;20097;-67
2023/10/09 01:16:23;;;;;;;13.65;6.57;;;13.90;99.90;;;;;;5088608;27;20042;-67
2023/10/09 01:18:51;;;;;;;11.10;6.80;;;13.90;99.90;;;;;;5107055;27;20035;-67
2023/10/09 01:21:31;;;;;;;14.68;7.45;;;13.90;99.90;;;;;;5106241;27;20138;-67
2023/10/09 01:24:03;;;;;;;13.50;8.00;;;13.80;99.90;;;;;;5106627;27;20050;-67
2023/10/09 01:26:39;;;;;;;16.08;8.07;;;13.90;99.90;;;;;;5105151;27;20077;-67
2023/10/09 01:29:14;;;;;;;;;;;13.90;99.90;;;;;;5107886;28;20040;-67
2023/10/09 01:31:56;;;;;;;14.23;8.80;;;13.90;99.90;;;;;;5104368;28;19915;-67
2023/10/09 01:34:50;;;;;;;11.85;8.00;;;13.90;99.90;;;;;;5106664;27;20101;-67
2023/10/09 01:37:28;;;;;;;10.45;7.97;;;13.90;99.90;;;;;;5106622;27;20039;-67
2023/10/09 01:39:59;;;;;;;11.35;8.13;;;13.80;99.90;;;;;;5102288;27;20169;-67
2023/10/09 01:43:09;;;;;;;14.18;8.23;;;13.90;99.90;;;;;;5105037;27;20072;-67
2023/10/09 01:45:27;;;;;;;12.68;8.20;;;13.90;99.90;;;;;;5104384;27;20043;-67
2023/10/09 01:47:56;;;;;;;12.77;8.43;;;13.90;99.90;;;;;;5133148;27;20044;-67
2023/10/09 01:50:24;;;;;;;18.00;10.07;;;13.90;99.90;;;;;;5104826;27;20036;-67
2023/10/09 01:52:53;;;;;;;14.43;9.23;;;13.90;99.90;;;;;;5104446;27;20059;-67
2023/10/09 01:55:40;;;;;;;12.20;7.90;;;13.90;99.90;;;;;;5101745;28;20039;-67
2023/10/09 01:58:16;;;;;;;17.45;9.75;;;13.90;99.90;;;;;;5102332;27;20547;-67
2023/10/09 02:00:47;;;;;;;13.43;9.25;;;13.80;99.90;;;;;;5105418;27;20155;-67
2023/10/09 02:03:13;;;;;;;16.25;9.95;;;13.80;99.90;;;;;;5085265;28;20083;-67
2023/10/09 02:05:39;;;;;;;16.30;9.82;;;13.80;99.90;;;;;;5107770;28;20526;-67
2023/10/09 02:08:05;;;;;;;19.25;11.18;;;13.80;99.90;;;;;;5104574;28;20039;-67
2023/10/09 02:10:32;;;;;;;15.70;10.43;;;13.80;99.90;;;;;;5104831;28;20058;-67
2023/10/09 02:13:06;;;;;;;20.38;10.65;;;13.80;99.90;;;;;;5085107;28;20089;-67
2023/10/09 02:18:19;;;;;;;19.10;10.63;;;13.80;99.90;;;;;;5135085;27;20082;-67
2023/10/09 02:20:45;;;;;;;19.40;11.70;;;13.80;99.90;;;;;;5100480;28;20092;-67
2023/10/09 02:23:17;;;;;;;17.48;10.55;;;13.80;99.90;;;;;;5099791;28;20097;-67
2023/10/09 02:25:43;;;;;;;23.17;12.07;;;13.80;99.90;;;;;;5101230;28;20043;-67
2023/10/09 02:28:17;;;;;;;17.67;11.82;;;13.80;99.90;;;;;;5116211;27;20039;-67
2023/10/09 02:30:47;;;;;;;17.33;11.55;;;13.80;99.90;;;;;;5106217;27;20077;-67
2023/10/09 02:33:18;;;;;;;19.98;12.60;;;13.80;99.90;;;;;;5106728;28;20031;-67
2023/10/09 02:35:44;;;;;;;22.35;13.38;;;13.80;99.90;;;;;;5135880;27;20040;-67
2023/10/09 02:38:14;;;;;;;23.33;13.32;;;13.90;99.90;;;;;;5105289;28;20088;-67
2023/10/09 02:43:26;;;;;;;25.20;15.13;;;13.90;99.90;;;;;;5135340;27;20043;-67
2023/10/09 02:45:52;;;;;;;22.10;14.52;;;13.90;99.90;;;;;;5102799;28;20122;-67
2023/10/09 02:48:27;;;;;;;23.83;15.80;;;13.90;99.90;;;;;;5104126;28;20544;-67
2023/10/09 02:50:54;;;;;;;26.17;14.75;;;13.90;99.90;;;;;;5103929;28;20400;-67
2023/10/09 02:53:19;;;;;;;23.48;14.63;;;13.90;99.90;;;;;;5138076;27;20071;-67
2023/10/09 02:56:04;;;;;;;23.27;14.45;;;13.90;99.90;;;;;;5106119;28;20478;-67
2023/10/09 02:58:32;;;;;;;29.33;16.15;;;14.00;99.90;;;;;;5097647;28;20051;-67
2023/10/09 03:00:59;;;;;;;27.55;15.55;;;14.00;99.90;;;;;;5139569;27;20035;-67
2023/10/09 03:03:25;;;;;;;25.60;16.02;;;13.90;99.90;;;;;;5122654;27;20031;-67
2023/10/09 03:05:51;;;;;;;24.73;16.10;;;14.00;99.90;;;;;;5105307;27;20036;-67
2023/10/09 03:08:19;;;;;;;31.00;17.10;;;13.90;99.90;;;;;;5107247;27;20447;-67
2023/10/09 03:10:45;;;;;;;28.27;17.90;;;14.00;99.90;;;;;;5108547;27;20047;-67
2023/10/09 03:13:10;;;;;;;27.63;16.48;;;14.00;99.90;;;;;;5106560;27;20093;-67
2023/10/09 03:15:38;;;;;;;28.42;17.05;;;13.90;99.90;;;;;;5108685;27;20162;-67
2023/10/09 03:18:04;;;;;;;29.63;16.95;;;14.00;99.90;;;;;;5107954;27;20031;-67
2023/10/09 03:20:30;;;;;;;29.80;17.15;;;14.00;99.90;;;;;;5106653;27;20497;-67
2023/10/09 03:22:57;;;;;;;26.77;18.63;;;14.00;99.90;;;;;;5102984;27;20115;-67
2023/10/09 03:25:24;;;;;;;31.10;19.83;;;14.00;99.90;;;;;;5107617;27;20047;-67
2023/10/09 03:27:51;;;;;;;33.40;20.40;;;14.00;99.90;;;;;;5108610;27;20050;-67
2023/10/09 03:30:22;;;;;;;31.75;19.15;;;14.00;99.90;;;;;;5139116;27;20054;-67
2023/10/09 03:32:52;;;;;;;32.05;19.60;;;14.10;99.90;;;;;;5136903;27;20610;-67
2023/10/09 03:35:24;;;;;;;30.80;20.30;;;14.10;99.90;;;;;;5106189;27;20485;-67
2023/10/09 03:38:00;;;;;;;31.77;19.38;;;14.10;99.90;;;;;;5135912;27;20058;-67
2023/10/09 03:40:26;;;;;;;36.13;22.83;;;14.10;99.90;;;;;;5102952;28;20044;-67
2023/10/09 03:42:52;;;;;;;31.95;20.52;;;14.10;99.90;;;;;;5093028;27;20036;-67
2023/10/09 03:45:35;;;;;;;37.25;22.05;;;14.20;99.90;;;;;;5107443;27;20058;-67
2023/10/09 03:48:22;;;;;;;34.95;20.58;;;14.20;99.90;;;;;;5104900;28;20182;-67
2023/10/09 03:50:47;;;;;;;39.25;22.73;;;14.20;99.90;;;;;;5106749;27;20168;-67
2023/10/09 03:53:13;;;;;;;37.85;22.33;;;14.30;99.90;;;;;;5105639;27;20118;-67
2023/10/09 03:55:40;;;;;;;38.67;22.45;;;14.20;99.90;;;;;;5104818;27;20051;-67
2023/10/09 03:58:11;;;;;;;35.97;21.95;;;14.30;99.90;;;;;;5106368;27;20036;-67
2023/10/09 04:00:46;;;;;;;34.95;22.55;;;14.30;99.90;;;;;;5104076;27;20036;-67
2023/10/09 04:03:14;;;;;;;35.27;22.60;;;14.30;99.90;;;;;;5107674;27;20043;-67
2023/10/09 04:05:42;;;;;;;41.83;23.38;;;14.30;99.90;;;;;;5106924;27;20036;-67
2023/10/09 04:08:16;;;;;;;44.90;25.45;;;14.40;99.90;;;;;;5105029;27;20089;-67
2023/10/09 04:10:50;;;;;;;35.38;21.98;;;14.40;99.90;;;;;;5107722;27;20048;-67
2023/10/09 04:13:22;;;;;;;37.83;23.67;;;14.40;99.90;;;;;;5104186;27;20047;-67
2023/10/09 04:15:53;;;;;;;41.10;23.83;;;14.40;99.90;;;;;;5106159;27;20032;-67
2023/10/09 04:18:20;;;;;;;41.35;24.10;;;14.40;99.90;;;;;;5137543;27;20043;-67
2023/10/09 04:23:59;;;;;;;44.42;25.98;;;14.50;99.90;;;;;;5136553;27;20047;-67
2023/10/09 04:26:20;;;;;;;39.13;24.63;;;14.50;99.90;;;;;;5103718;27;20047;-67
2023/10/09 04:28:51;;;;;;;42.13;25.48;;;14.50;99.90;;;;;;5109922;27;20402;-67
2023/10/09 04:31:19;;;;;;;44.50;23.98;;;14.60;99.90;;;;;;5118480;27;20039;-67
2023/10/09 04:33:53;;;;;;;44.60;25.77;;;14.60;99.90;;;;;;5105051;27;20024;-67
2023/10/09 04:44:29;;;;;;;42.83;23.00;;;14.80;99.90;;;;;;5130577;27;20156;-67
2023/10/09 04:50:01;;;;;;;44.50;22.92;;;14.80;99.90;;;;;;5105542;27;20057;-67
2023/10/09 04:55:15;;;;;;;39.35;22.88;;;14.90;99.90;;;;;;5108948;27;20032;-67
2023/10/09 05:02:54;;;;;;;41.20;22.55;;;15.10;99.90;;;;;;5105146;27;20338;-67
2023/10/09 05:11:15;;;;;;;37.03;20.52;;;15.30;99.90;;;;;;5029914;28;20053;-67
2023/10/09 05:16:28;;;;;;;35.72;21.10;;;15.40;99.90;;;;;;5135094;27;20550;-67
2023/10/09 05:19:07;;;;;;;35.30;20.20;;;15.40;99.90;;;;;;5099305;27;20705;-67
2023/10/09 05:21:44;;;;;;;31.63;19.85;;;15.40;99.90;;;;;;5102921;27;20438;-67
2023/10/09 05:34:33;;;;;;;28.52;17.80;;;15.50;99.90;;;;;;5105538;27;20130;-67
2023/10/09 05:37:17;;;;;;;31.65;18.25;;;15.50;99.90;;;;;;5104695;27;20054;-67
2023/10/09 05:47:53;;;;;;;29.52;15.52;;;15.60;99.90;;;;;;5109830;27;20865;-66
2023/10/09 05:53:04;;;;;;;29.65;16.13;;;15.70;99.90;;;;;;5106172;27;20128;-67
2023/10/09 05:56:59;;;;;;;26.63;14.65;;;15.70;99.90;;;;;;5104360;27;20748;-67
2023/10/09 06:03:54;;;;;;;19.50;13.10;;;15.80;99.90;;;;;;5105807;27;20051;-67
2023/10/09 06:06:32;;;;;;;24.75;13.52;;;15.80;99.90;;;;;;5101138;28;20031;-67
2023/10/09 06:11:55;;;;;;;15.48;11.88;;;15.80;99.90;;;;;;5103487;27;20111;-67
2023/10/09 06:14:45;;;;;;;17.75;11.73;;;15.80;99.90;;;;;;5107843;27;20477;-67
2023/10/09 06:19:43;;;;;;;18.08;9.82;;;15.80;99.90;;;;;;5128255;27;20052;-67
2023/10/09 06:24:54;;;;;;;16.25;8.77;;;15.90;99.90;;;;;;5136021;27;20066;-67
2023/10/09 06:27:25;;;;;;;15.45;9.35;;;15.90;99.90;;;;;;5100340;27;20047;-67
2023/10/09 06:29:51;;;;;;;16.63;9.68;;;15.80;99.90;;;;;;5099831;28;20038;-67
2023/10/09 06:34:46;;;;;;;14.68;8.45;;;15.90;99.90;;;;;;5135333;27;20074;-67
2023/10/09 06:43:08;;;;;;;16.88;8.60;;;16.00;99.90;;;;;;5105074;28;20062;-67
2023/10/09 06:45:19;;;;;;;16.83;7.93;;;15.90;99.90;;;;;;5122547;27;20043;-67
2023/10/09 06:47:56;;;;;;;11.32;8.10;;;16.00;99.90;;;;;;5102733;28;20078;-67
2023/10/09 06:50:24;;;;;;;15.65;8.15;;;16.10;99.90;;;;;;5101560;28;20036;-67
2023/10/09 06:52:57;;;;;;;17.60;7.43;;;16.10;99.90;;;;;;5105450;28;20388;-67
2023/10/09 06:55:48;;;;;;;14.85;8.25;;;16.10;99.90;;;;;;5105059;28;20126;-67
2023/10/09 06:58:16;;;;;;;10.90;7.40;;;16.10;99.90;;;;;;5104188;28;20032;-67
2023/10/09 07:03:29;;;;;;;13.93;6.72;;;16.10;99.90;;;;;;5102459;28;20044;-67
2023/10/09 07:17:15;;;;;;;14.15;6.80;;;16.10;99.90;;;;;;5104819;28;20054;-67
2023/10/09 07:24:58;;;;;;;12.75;6.45;;;16.30;99.90;;;;;;5100069;28;20055;-67
2023/10/09 07:38:08;;;;;;;13.52;6.07;;;16.30;99.90;;;;;;5103282;28;20550;-67
2023/10/09 07:43:28;;;;;;;11.65;7.53;;;16.40;99.90;;;;;;5132412;27;20048;-67
2023/10/09 07:48:26;;;;;;;12.30;7.18;;;16.40;99.90;;;;;;5104044;27;20058;-67
2023/10/09 07:50:57;;;;;;;16.63;6.55;;;16.40;99.90;;;;;;5104374;27;20082;-67
2023/10/09 07:53:26;;;;;;;11.43;6.78;;;16.50;99.90;;;;;;5106261;27;20112;-67
2023/10/09 07:55:58;;;;;;;14.40;6.97;;;16.50;99.90;;;;;;5102518;27;20057;-67
2023/10/09 07:58:25;;;;;;;11.48;6.55;;;16.50;99.90;;;;;;5109304;27;20065;-67
2023/10/09 08:03:24;;;;;;;12.35;5.78;;;16.60;99.90;;;;;;5137455;27;20126;-67
2023/10/09 08:05:52;;;;;;;12.10;6.43;;;16.60;99.90;;;;;;5138759;27;20478;-67
2023/10/09 08:08:39;;;;;;;11.95;6.53;;;16.60;99.90;;;;;;5105127;27;20046;-67
2023/10/09 08:13:57;;;;;;;15.50;6.82;;;16.70;99.90;;;;;;5104039;27;20127;-68
2023/10/09 08:16:24;;;;;;;13.35;6.13;;;16.60;99.90;;;;;;5102329;27;20097;-67
2023/10/09 08:18:52;;;;;;;14.52;6.03;;;16.70;99.90;;;;;;5105923;27;20101;-67
2023/10/09 08:21:41;;;;;;;11.98;6.18;;;16.70;99.90;;;;;;5131149;27;20053;-67
2023/10/09 08:24:35;;;;;;;10.88;5.78;;;16.80;99.90;;;;;;5105854;27;20453;-67
2023/10/09 08:27:28;;;;;;;10.98;5.80;;;16.70;99.90;;;;;;5101055;27;20393;-67
2023/10/09 08:29:46;;;;;;;11.02;6.40;;;16.80;99.90;;;;;;5100315;28;20109;-67
2023/10/09 08:32:18;;;;;;;14.15;6.40;;;16.80;99.90;;;;;;5085122;27;20046;-67
2023/10/09 08:34:49;;;;;;;11.82;6.28;;;16.70;99.90;;;;;;5104147;27;20811;-67
2023/10/09 08:37:25;;;;;;;13.63;6.13;;;16.80;99.90;;;;;;5098547;27;20062;-67
2023/10/09 08:39:54;;;;;;;15.70;6.40;;;16.80;99.90;;;;;;5104093;27;20044;-68
2023/10/09 08:42:23;;;;;;;15.75;6.60;;;16.70;99.90;;;;;;5101963;28;20046;-67
2023/10/09 08:44:49;;;;;;;32.33;7.82;;;16.80;99.90;;;;;;5104328;27;20047;-67
2023/10/09 08:47:15;;;;;;;16.58;6.85;;;16.80;99.90;;;;;;5134368;27;20050;-67
2023/10/09 08:49:42;;;;;;;15.23;6.68;;;16.80;99.90;;;;;;5101502;27;20043;-67
2023/10/09 08:52:10;;;;;;;18.45;6.82;;;16.80;99.90;;;;;;5104901;27;20436;-67
2023/10/09 08:54:37;;;;;;;17.50;7.38;;;16.80;99.90;;;;;;5102439;27;20059;-67
2023/10/09 08:57:02;;;;;;;18.48;6.45;;;16.80;99.90;;;;;;5096668;28;20396;-67
2023/10/09 08:59:28;;;;;;;17.50;6.50;;;16.80;99.90;;;;;;5104836;27;20044;-67
2023/10/09 09:01:54;;;;;;;10.45;6.97;;;16.80;99.90;;;;;;5096422;27;20035;-67
2023/10/09 09:04:45;;;;;;;14.80;6.40;;;16.80;99.90;;;;;;5117761;27;20032;-67
2023/10/09 09:07:26;;;;;;;14.40;6.97;;;16.80;99.90;;;;;;5102910;27;20621;-67
2023/10/09 09:12:43;;;;;;;15.30;6.43;;;16.80;99.90;;;;;;5099511;27;20737;-67
2023/10/09 09:15:22;;;;;;;14.35;7.40;;;16.90;99.90;;;;;;5103001;27;20047;-67
2023/10/09 09:17:51;;;;;;;14.05;6.63;;;16.80;99.90;;;;;;5097199;27;20044;-67
2023/10/09 09:20:23;;;;;;;15.55;6.38;;;16.80;99.90;;;;;;5102332;27;20070;-67
2023/10/09 09:22:58;;;;;;;16.83;6.18;;;16.90;99.90;;;;;;5105057;27;20101;-67
2023/10/09 09:25:31;;;;;;;;;;;16.90;99.90;;;;;;5104970;27;20328;-67
2023/10/09 09:27:57;;;;;;;15.38;6.05;;;16.80;99.90;;;;;;5100592;27;20274;-67
2023/10/09 09:30:33;;;;;;;14.93;6.15;;;16.80;99.90;;;;;;5099374;27;20055;-67
2023/10/09 09:33:23;;;;;;;11.82;5.75;;;16.90;99.90;;;;;;5103638;27;20127;-67
2023/10/09 09:35:58;;;;;;;14.43;6.47;;;16.90;99.90;;;;;;5133526;27;20048;-67
2023/10/09 09:38:27;;;;;;;10.70;5.28;;;16.90;99.90;;;;;;5100294;27;20035;-67
2023/10/09 09:40:56;;;;;;;12.23;7.07;;;16.90;99.90;;;;;;5101528;27;20047;-67
2023/10/09 09:43:23;;;;;;;16.60;5.95;;;17.00;99.90;;;;;;5100074;27;20123;-67
2023/10/09 09:45:52;;;;;;;16.63;6.18;;;17.00;99.90;;;;;;5104698;27;20108;-67
2023/10/09 09:48:18;;;;;;;12.68;6.00;;;17.00;99.90;;;;;;5097398;27;20472;-67
2023/10/09 09:50:45;;;;;;;9.85;5.45;;;17.10;99.90;;;;;;5096640;28;20475;-67
2023/10/09 09:53:17;;;;;;;15.95;6.60;;;17.10;99.90;;;;;;5102696;27;20585;-67
2023/10/09 09:55:59;;;;;;;12.40;6.05;;;17.10;99.90;;;;;;5132123;27;20503;-67
2023/10/09 09:58:37;;;;;;;19.08;6.35;;;17.20;99.90;;;;;;5098390;27;20551;-67
2023/10/09 10:01:15;;;;;;;14.18;5.82;;;17.20;99.90;;;;;;5103860;27;20055;-67
2023/10/09 10:03:47;;;;;;;13.20;5.90;;;17.30;99.90;;;;;;5130579;27;20043;-67
2023/10/09 10:06:14;;;;;;;16.83;6.97;;;17.30;99.90;;;;;;5103512;27;20040;-67
2023/10/09 10:08:41;;;;;;;15.40;6.75;;;17.30;99.90;;;;;;5099964;27;20058;-67
2023/10/09 10:11:13;;;;;;;13.35;7.25;;;17.30;99.90;;;;;;5101068;28;20957;-67
2023/10/09 10:13:42;;;;;;;18.25;8.25;;;17.40;99.90;;;;;;5103536;27;20043;-67
2023/10/09 10:21:41;;;;;;;15.40;6.15;;;17.50;99.90;;;;;;5101224;28;20054;-67
2023/10/09 10:24:28;;;;;;;14.68;5.80;;;17.60;99.90;;;;;;5102851;28;20055;-67
2023/10/09 10:27:24;;;;;;;13.50;5.90;;;17.50;99.90;;;;;;5116001;27;20039;-67
2023/10/09 10:30:18;;;;;;;18.98;6.53;;;17.50;99.90;;;;;;5100387;28;20063;-67
2023/10/09 10:35:57;;;;;;;15.93;6.05;;;17.50;99.90;;;;;;5046586;28;20049;-67
2023/10/09 10:38:36;;;;;;;11.38;6.03;;;17.50;99.90;;;;;;5087070;28;20410;-67
2023/10/09 10:41:31;;;;;;;16.80;6.05;;;17.50;99.90;;;;;;5131381;27;20054;-67
2023/10/09 10:43:59;;;;;;;13.68;5.43;;;17.50;99.90;;;;;;5099186;27;20059;-67
2023/10/09 10:46:37;;;;;;;14.50;6.32;;;17.50;99.90;;;;;;5099228;28;20115;-67
2023/10/09 10:49:21;;;;;;;17.08;7.03;;;17.50;99.90;;;;;;5100492;28;20088;-67
2023/10/09 10:52:15;;;;;;;11.77;5.95;;;17.50;99.90;;;;;;5120817;27;20498;-67
2023/10/09 10:57:19;;;;;;;17.67;7.47;;;17.50;99.90;;;;;;5100464;28;20451;-67
2023/10/09 10:59:45;;;;;;;12.50;5.50;;;17.50;99.90;;;;;;5102822;28;20481;-67
2023/10/09 11:04:45;;;;;;;12.90;6.38;;;17.50;99.90;;;;;;5099561;28;20566;-67
2023/10/09 11:07:26;;;;;;;18.33;6.65;;;17.60;99.90;;;;;;5132677;27;20050;-67
2023/10/09 11:12:42;;;;;;;12.27;6.45;;;17.60;99.90;;;;;;5100977;28;20113;-67
2023/10/09 11:18:07;;;;;;;13.25;5.78;;;17.70;99.90;;;;;;5101777;28;20099;-66
2023/10/09 11:20:53;;;;;;;11.20;5.88;;;17.70;99.90;;;;;;5099269;28;20046;-66
2023/10/09 11:23:28;;;;;;;12.95;6.20;;;17.70;99.90;;;;;;5101616;27;20597;-66
2023/10/09 11:26:20;;;;;;;14.85;7.00;;;17.70;99.90;;;;;;5107207;27;20036;-66
2023/10/09 11:28:48;;;;;;;13.95;5.82;;;17.70;99.90;;;;;;5105432;27;20484;-66
2023/10/09 11:31:28;;;;;;;13.80;6.38;;;17.70;99.90;;;;;;5105175;27;20065;-66
2023/10/09 11:33:53;;;;;;;19.27;6.82;;;17.70;99.90;;;;;;5106599;27;20048;-66
2023/10/09 11:36:31;;;;;;;13.38;5.35;;;17.70;99.90;;;;;;5110170;27;20063;-66
2023/10/09 11:39:13;;;;;;;10.40;4.45;;;17.80;99.90;;;;;;5102837;27;20309;-66
2023/10/09 11:41:42;;;;;;;11.68;5.05;;;17.80;99.90;;;;;;5107814;27;20108;-66
2023/10/09 11:44:44;;;;;;;10.27;4.82;;;17.90;99.90;;;;;;5109947;27;20478;-67
2023/10/09 11:52:35;;;;;;;12.85;4.70;;;18.10;99.90;;;;;;5139690;27;20050;-66
2023/10/09 11:55:02;;;;;;;13.38;4.43;;;18.10;99.90;;;;;;5106146;27;20032;-66
2023/10/09 11:57:31;;;;;;;11.45;4.55;;;18.10;99.90;;;;;;5108206;27;20076;-66
2023/10/09 11:59:59;;;;;;;10.02;5.20;;;18.00;99.90;;;;;;5103428;27;20043;-66
2023/10/09 12:02:25;;;;;;;10.75;4.05;;;18.00;99.90;;;;;;5103200;27;20048;-66
2023/10/09 12:04:51;;;;;;;11.63;4.82;;;18.00;99.90;;;;;;5108656;27;20544;-67
2023/10/09 12:07:20;;;;;;;11.68;4.53;;;18.00;99.90;;;;;;5111683;27;20040;-67
2023/10/09 12:09:47;;;;;;;10.65;3.50;;;17.90;99.90;;;;;;5106414;27;20421;-67
2023/10/09 12:12:13;;;;;;;12.95;4.07;;;17.90;99.90;;;;;;5137791;27;20043;-66
2023/10/09 12:14:39;;;;;;;14.65;4.47;;;17.90;99.90;;;;;;5133790;27;20050;-66
2023/10/09 12:17:06;;;;;;;10.85;3.33;;;17.90;99.90;;;;;;5102378;27;20092;-66
2023/10/09 12:19:36;;;;;;;10.10;3.47;;;17.90;99.90;;;;;;5105084;27;20036;-66
2023/10/09 12:22:04;;;;;;;14.30;3.75;;;18.00;99.90;;;;;;5134941;27;20036;-66
2023/10/09 12:24:30;;;;;;;9.13;3.42;;;18.10;99.90;;;;;;5103534;28;20027;-66
2023/10/09 12:26:56;;;;;;;14.63;3.42;;;18.20;99.90;;;;;;5102568;27;20043;-66
2023/10/09 12:29:23;;;;;;;9.93;3.20;;;18.50;99.90;;;;;;5136422;27;20458;-66
2023/10/09 12:31:57;;;;;;;8.20;3.22;;;18.80;99.90;;;;;;5098496;27;20127;-67
2023/10/09 12:34:26;;;;;;;10.75;3.17;;;19.00;99.90;;;;;;5102491;27;21006;-66
2023/10/09 12:36:55;;;;;;;11.00;2.90;;;19.20;99.90;;;;;;5101043;28;20076;-66
2023/10/09 12:39:24;;;;;;;9.13;3.42;;;19.40;99.90;;;;;;5104801;27;20150;-67
2023/10/09 12:41:53;;;;;;;9.13;3.13;;;19.40;99.90;;;;;;5111187;27;20565;-67
2023/10/09 12:44:22;;;;;;;9.68;2.97;;;19.40;99.90;;;;;;5106863;27;20044;-66
2023/10/09 12:46:53;;;;;;;8.75;2.85;;;19.30;99.90;;;;;;5102458;27;20047;-67
2023/10/09 12:49:25;;;;;;;6.90;2.70;;;19.20;99.90;;;;;;5104493;27;20127;-67
2023/10/09 12:51:54;;;;;;;7.05;2.42;;;19.30;99.90;;;;;;5102807;27;20040;-67
2023/10/09 12:54:20;;;;;;;6.75;2.80;;;19.30;99.90;;;;;;5104285;27;20058;-66
2023/10/09 12:56:48;;;;;;;7.65;2.92;;;19.20;99.90;;;;;;5102450;27;20465;-66
2023/10/09 12:59:14;;;;;;;14.98;2.67;;;19.10;99.90;;;;;;5102893;27;20044;-66
2023/10/09 13:01:43;;;;;;;8.32;2.63;;;19.10;99.90;;;;;;5103116;27;20496;-66
2023/10/09 13:04:16;;;;;;;6.45;2.20;;;19.10;99.90;;;;;;5102751;27;20071;-66
2023/10/09 13:06:45;;;;;;;6.55;1.92;;;19.00;99.90;;;;;;5103036;27;20772;-66
2023/10/09 13:09:15;;;;;;;8.10;2.22;;;19.00;99.90;;;;;;5103191;27;20039;-66
2023/10/09 13:11:42;;;;;;;6.88;2.05;;;18.90;99.90;;;;;;5133710;27;20134;-66
2023/10/09 13:14:17;;;;;;;8.15;2.78;;;18.90;99.90;;;;;;5103448;27;20035;-66
2023/10/09 13:16:43;;;;;;;8.02;2.30;;;18.80;99.90;;;;;;5105321;27;20084;-66
2023/10/09 13:19:09;;;;;;;7.15;3.25;;;18.80;99.90;;;;;;5104143;27;20054;-66
2023/10/09 13:21:40;;;;;;;8.43;2.38;;;18.70;99.90;;;;;;5099777;27;20489;-66
2023/10/09 13:24:13;;;;;;;5.82;2.08;;;18.70;99.90;;;;;;5104963;27;20090;-66
2023/10/09 13:26:40;;;;;;;8.35;2.10;;;18.70;99.90;;;;;;5127331;27;20047;-66
2023/10/09 13:29:11;;;;;;;6.10;1.73;;;18.70;99.90;;;;;;5095291;27;20355;-66
2023/10/09 13:31:37;;;;;;;8.13;2.10;;;18.70;99.90;;;;;;5098938;27;20054;-66
2023/10/09 13:34:10;;;;;;;7.10;2.30;;;18.80;99.90;;;;;;5112057;27;20073;-66
2023/10/09 13:36:36;;;;;;;7.15;2.22;;;18.80;99.90;;;;;;5099648;27;20413;-66
2023/10/09 13:41:49;;;;;;;7.63;2.40;;;18.90;99.90;;;;;;5098952;27;20105;-66
2023/10/09 13:44:14;;;;;;;7.55;2.40;;;18.80;99.90;;;;;;5125912;27;20139;-66
2023/10/09 13:46:43;;;;;;;6.25;2.05;;;18.80;99.90;;;;;;5109133;27;20040;-67
2023/10/09 13:49:14;;;;;;;5.07;2.13;;;18.80;99.90;;;;;;5099298;27;20051;-67
2023/10/09 13:51:46;;;;;;;7.90;2.08;;;18.80;99.90;;;;;;5095994;27;20047;-67
2023/10/09 13:54:20;;;;;;;5.03;2.17;;;18.80;99.90;;;;;;5102317;27;20172;-67
2023/10/09 13:56:52;;;;;;;5.78;1.75;;;18.80;99.90;;;;;;5134273;27;20067;-66
2023/10/09 13:59:22;;;;;;;8.23;1.80;;;18.80;99.90;;;;;;5091945;28;20036;-66
2023/10/09 14:01:48;;;;;;;4.30;1.95;;;18.80;99.90;;;;;;5105405;27;20047;-66
2023/10/09 14:04:20;;;;;;;7.97;2.45;;;18.80;99.90;;;;;;5103877;28;20075;-67
2023/10/09 14:06:47;;;;;;;7.72;1.73;;;18.70;99.90;;;;;;5134689;27;20067;-67
2023/10/09 14:09:27;;;;;;;6.03;2.10;;;18.70;99.90;;;;;;5103099;27;20211;-67
2023/10/09 14:12:07;;;;;;;5.78;2.00;;;18.70;99.90;;;;;;5104905;27;20031;-67
2023/10/09 14:14:46;;;;;;;6.75;2.03;;;18.60;99.90;;;;;;5101482;27;20054;-66
2023/10/09 14:17:13;;;;;;;7.15;2.10;;;18.60;99.90;;;;;;5106699;27;20074;-66
2023/10/09 14:19:47;;;;;;;7.20;2.53;;;18.60;99.90;;;;;;5100924;28;20048;-66
2023/10/09 14:22:15;;;;;;;7.05;1.67;;;18.50;99.90;;;;;;5093607;27;20071;-66
2023/10/09 14:24:45;;;;;;;4.57;1.77;;;18.60;99.90;;;;;;5099064;27;20039;-66
2023/10/09 14:27:18;;;;;;;5.95;1.63;;;18.50;99.90;;;;;;5100838;27;20048;-66
2023/10/09 14:29:48;;;;;;;3.85;1.50;;;18.40;99.90;;;;;;5127926;27;20154;-66
2023/10/09 14:32:14;;;;;;;7.00;2.33;;;18.50;99.90;;;;;;5098999;27;20194;-66
2023/10/09 14:34:49;;;;;;;4.07;1.30;;;18.40;99.90;;;;;;5096659;28;20393;-66
2023/10/09 14:37:19;;;;;;;;;;;18.40;99.90;;;;;;5125644;27;20036;-66
2023/10/09 14:39:48;;;;;;;6.85;1.80;;;18.40;99.90;;;;;;5093419;28;19931;-66
2023/10/09 14:42:17;;;;;;;5.55;1.92;;;18.40;99.90;;;;;;5092067;28;20065;-66
2023/10/09 14:44:47;;;;;;;6.43;2.13;;;18.40;99.90;;;;;;5102205;28;20032;-66
2023/10/09 14:47:18;;;;;;;10.63;2.83;;;18.30;99.90;;;;;;5098579;28;20093;-66
2023/10/09 14:49:47;;;;;;;9.70;2.33;;;18.30;99.90;;;;;;5124803;27;20055;-66
2023/10/09 14:52:18;;;;;;;6.72;1.98;;;18.30;99.90;;;;;;5099172;28;20058;-66
2023/10/09 14:54:44;;;;;;;8.43;2.13;;;18.30;99.90;;;;;;5094281;28;20374;-66
2023/10/09 14:57:11;;;;;;;6.22;1.65;;;18.10;99.90;;;;;;5102900;27;20401;-66
2023/10/09 14:59:38;;;;;;;6.05;1.85;;;18.20;99.90;;;;;;5100306;27;20036;-66
2023/10/09 15:02:05;;;;;;;10.60;2.58;;;18.10;99.90;;;;;;5114676;27;20050;-66
2023/10/09 15:04:31;;;;;;;7.72;2.42;;;18.10;99.90;;;;;;5098783;27;20046;-66
2023/10/09 15:06:57;;;;;;;14.15;3.30;;;18.00;99.90;;;;;;5097532;27;21118;-66
2023/10/09 15:09:24;;;;;;;5.10;1.65;;;17.90;99.90;;;;;;5129012;27;20039;-67
2023/10/09 15:11:50;;;;;;;5.85;2.33;;;17.90;99.90;;;;;;5098521;27;20048;-66
2023/10/09 15:14:18;;;;;;;6.40;1.95;;;17.90;99.90;;;;;;5096858;27;20130;-66
2023/10/09 15:16:46;;;;;;;7.68;1.60;;;17.90;99.90;;;;;;5093661;27;20047;-66
2023/10/09 15:19:12;;;;;;;6.05;1.45;;;17.90;99.90;;;;;;5098603;27;20626;-66
2023/10/09 15:21:43;;;;;;;2.97;1.10;;;17.80;99.90;;;;;;5098817;27;20059;-66
2023/10/09 15:24:16;;;;;;;7.28;2.15;;;17.80;99.90;;;;;;5107786;27;20130;-66
2023/10/09 15:26:58;;;;;;;8.35;2.17;;;17.80;99.90;;;;;;5120329;27;20142;-66
2023/10/09 15:29:28;;;;;;;4.95;1.63;;;17.70;99.90;;;;;;5088188;27;20054;-66
2023/10/09 15:32:00;;;;;;;5.75;1.75;;;17.70;99.90;;;;;;5100745;27;20506;-66
2023/10/09 15:34:27;;;;;;;4.97;1.50;;;17.70;99.90;;;;;;5105032;27;20062;-66
2023/10/09 15:36:53;;;;;;;6.15;1.50;;;17.70;99.90;;;;;;5103970;27;20059;-66
2023/10/09 15:39:19;;;;;;;6.30;1.60;;;17.70;99.90;;;;;;5103341;27;21045;-66
2023/10/09 15:41:46;;;;;;;3.85;1.13;;;17.70;99.90;;;;;;5102866;27;20058;-66